createdAt,value
2022-11-24T00:00:21.036Z,0.00
2022-11-24T00:01:16.037Z,0.00
2022-11-24T00:02:11.196Z,0.00
2022-11-24T00:03:06.300Z,0.00
2022-11-24T00:04:01.365Z,0.00
2022-11-24T00:04:56.294Z,0.00
2022-11-24T00:05:55.713Z,0.00
2022-11-24T00:06:50.803Z,0.00
2022-11-24T00:07:46.085Z,0.00
2022-11-24T00:08:41.177Z,0.00
2022-11-24T00:09:36.625Z,0.00
2022-11-24T00:10:31.677Z,0.00
2022-11-24T00:11:26.811Z,0.00
2022-11-24T00:12:22.004Z,0.00
2022-11-24T00:13:17.378Z,0.00
2022-11-24T00:14:12.500Z,0.00
2022-11-24T00:15:07.882Z,0.00
2022-11-24T00:16:02.735Z,0.00
2022-11-24T00:16:58.111Z,0.00
2022-11-24T00:17:53.054Z,0.00
2022-11-24T00:18:48.147Z,0.00
2022-11-24T00:19:43.553Z,0.00
2022-11-24T00:20:38.626Z,0.00
2022-11-24T00:21:33.728Z,0.00
2022-11-24T00:22:28.951Z,0.00
2022-11-24T00:23:24.051Z,0.00
2022-11-24T00:24:19.244Z,0.00
2022-11-24T00:25:14.496Z,0.00
2022-11-24T00:26:09.671Z,0.00
2022-11-24T00:27:04.626Z,0.00
2022-11-24T00:27:59.678Z,0.00
2022-11-24T00:28:54.743Z,0.00
2022-11-24T00:29:49.820Z,0.00
2022-11-24T00:30:44.956Z,0.00
2022-11-24T00:31:40.009Z,0.00
2022-11-24T00:32:34.987Z,0.00
2022-11-24T00:33:30.181Z,0.00
2022-11-24T00:34:25.246Z,0.00
2022-11-24T00:35:20.446Z,0.00
2022-11-24T00:36:15.780Z,0.00
2022-11-24T00:37:10.787Z,0.00
2022-11-24T00:38:05.594Z,0.00
2022-11-24T00:39:00.703Z,0.00
2022-11-24T00:39:55.772Z,0.00
2022-11-24T00:40:50.837Z,0.00
2022-11-24T00:41:45.890Z,0.00
2022-11-24T00:42:41.025Z,0.00
2022-11-24T00:43:36.064Z,0.00
2022-11-24T00:44:31.281Z,0.00
2022-11-24T00:45:26.167Z,0.00
2022-11-24T00:46:21.306Z,0.00
2022-11-24T00:47:16.390Z,0.00
2022-11-24T00:48:11.722Z,0.00
2022-11-24T00:49:06.633Z,0.00
2022-11-24T00:50:01.682Z,0.00
2022-11-24T00:50:56.891Z,0.00
2022-11-24T00:51:52.144Z,0.00
2022-11-24T00:52:48.074Z,0.00
2022-11-24T00:53:43.589Z,0.00
2022-11-24T00:54:38.659Z,0.00
2022-11-24T00:55:34.994Z,0.00
2022-11-24T00:56:30.236Z,0.00
2022-11-24T00:57:26.069Z,0.00
2022-11-24T00:58:21.149Z,0.00
2022-11-24T00:59:16.587Z,0.00
2022-11-24T01:00:12.267Z,0.00
2022-11-24T01:01:07.619Z,0.00
2022-11-24T01:02:03.379Z,0.00
2022-11-24T01:02:58.533Z,0.00
2022-11-24T01:03:53.785Z,0.00
2022-11-24T01:04:49.601Z,0.00
2022-11-24T01:05:44.568Z,0.00
2022-11-24T01:06:39.774Z,0.00
2022-11-24T01:07:36.097Z,0.00
2022-11-24T01:08:31.132Z,0.00
2022-11-24T01:09:27.074Z,0.00
2022-11-24T01:10:22.037Z,0.00
2022-11-24T01:11:17.172Z,0.00
2022-11-24T01:12:12.953Z,0.00
2022-11-24T01:13:08.205Z,0.00
2022-11-24T01:14:04.007Z,0.00
2022-11-24T01:14:59.197Z,0.00
2022-11-24T01:15:54.508Z,0.00
2022-11-24T01:16:50.300Z,0.00
2022-11-24T01:17:45.451Z,0.00
2022-11-24T01:18:40.485Z,0.00
2022-11-24T01:19:36.888Z,0.00
2022-11-24T01:20:31.950Z,0.00
2022-11-24T01:21:27.816Z,0.00
2022-11-24T01:22:22.994Z,0.00
2022-11-24T01:23:18.237Z,0.00
2022-11-24T01:24:14.136Z,0.00
2022-11-24T01:25:09.249Z,0.00
2022-11-24T01:26:05.177Z,0.00
2022-11-24T01:27:00.277Z,0.00
2022-11-24T01:27:55.405Z,0.00
2022-11-24T01:28:51.236Z,0.00
2022-11-24T01:29:46.343Z,0.00
2022-11-24T01:30:41.743Z,0.00
2022-11-24T01:31:37.932Z,0.00
2022-11-24T01:32:33.183Z,0.00
2022-11-24T01:33:29.016Z,0.00
2022-11-24T01:34:24.089Z,0.00
2022-11-24T01:35:19.469Z,0.00
2022-11-24T01:36:15.155Z,0.00
2022-11-24T01:37:10.399Z,0.00
2022-11-24T01:38:06.224Z,0.00
2022-11-24T01:39:01.430Z,0.00
2022-11-24T01:39:56.800Z,0.00
2022-11-24T01:40:52.526Z,0.00
2022-11-24T01:41:47.622Z,0.00
2022-11-24T01:42:42.706Z,0.00
2022-11-24T01:43:39.177Z,0.00
2022-11-24T01:44:34.663Z,0.00
2022-11-24T01:45:30.277Z,0.00
2022-11-24T01:46:25.690Z,0.00
2022-11-24T01:47:20.857Z,0.00
2022-11-24T01:48:16.514Z,0.00
2022-11-24T01:49:12.011Z,0.00
2022-11-24T01:50:07.584Z,0.00
2022-11-24T01:51:02.673Z,0.00
2022-11-24T01:51:57.910Z,0.00
2022-11-24T01:52:53.123Z,0.00
2022-11-24T01:53:48.244Z,0.00
2022-11-24T01:54:44.083Z,0.00
2022-11-24T01:55:39.259Z,0.00
2022-11-24T01:56:34.355Z,0.00
2022-11-24T01:57:30.262Z,0.00
2022-11-24T01:58:25.390Z,0.00
2022-11-24T01:59:21.272Z,0.00
2022-11-24T02:00:16.509Z,0.00
2022-11-24T02:01:11.800Z,0.00
2022-11-24T02:02:07.734Z,0.00
2022-11-24T02:03:02.883Z,0.00
2022-11-24T02:03:57.945Z,0.00
2022-11-24T02:04:54.289Z,0.00
2022-11-24T02:05:49.498Z,0.00
2022-11-24T02:06:45.400Z,0.00
2022-11-24T02:07:40.561Z,0.00
2022-11-24T02:08:35.569Z,0.00
2022-11-24T02:09:30.792Z,0.00
2022-11-24T02:10:25.850Z,0.00
2022-11-24T02:11:20.920Z,0.00
2022-11-24T02:12:16.023Z,0.00
2022-11-24T02:13:11.089Z,0.00
2022-11-24T02:14:06.130Z,0.00
2022-11-24T02:15:01.192Z,0.00
2022-11-24T02:15:56.320Z,0.00
2022-11-24T02:16:51.383Z,0.00
2022-11-24T02:17:46.494Z,0.00
2022-11-24T02:18:44.574Z,0.00
2022-11-24T02:19:39.799Z,0.00
2022-11-24T02:20:34.754Z,0.00
2022-11-24T02:21:29.809Z,0.00
2022-11-24T02:22:24.893Z,0.00
2022-11-24T02:23:19.980Z,0.00
2022-11-24T02:24:15.086Z,0.00
2022-11-24T02:25:10.222Z,0.00
2022-11-24T02:26:05.210Z,0.00
2022-11-24T02:27:00.420Z,0.00
2022-11-24T02:27:55.783Z,0.00
2022-11-24T02:28:50.865Z,0.00
2022-11-24T02:29:45.948Z,0.00
2022-11-24T02:30:41.191Z,0.00
2022-11-24T02:31:36.182Z,0.00
2022-11-24T02:32:31.130Z,0.00
2022-11-24T02:33:26.216Z,0.00
2022-11-24T02:34:21.334Z,0.00
2022-11-24T02:35:16.427Z,0.00
2022-11-24T02:36:11.494Z,0.00
2022-11-24T02:37:06.610Z,0.00
2022-11-24T02:38:01.655Z,0.00
2022-11-24T02:38:56.712Z,0.00
2022-11-24T02:39:52.107Z,0.00
2022-11-24T02:40:46.833Z,0.00
2022-11-24T02:41:41.898Z,0.00
2022-11-24T02:42:39.144Z,0.00
2022-11-24T02:43:34.214Z,0.00
2022-11-24T02:44:29.211Z,0.00
2022-11-24T02:45:24.260Z,0.00
2022-11-24T02:46:19.311Z,0.00
2022-11-24T02:47:14.259Z,0.00
2022-11-24T02:48:09.367Z,0.00
2022-11-24T02:49:04.375Z,0.00
2022-11-24T02:49:59.401Z,0.00
2022-11-24T02:50:54.494Z,0.00
2022-11-24T02:51:49.466Z,0.00
2022-11-24T02:52:44.581Z,0.00
2022-11-24T02:53:39.719Z,0.00
2022-11-24T02:54:35.222Z,0.00
2022-11-24T02:55:30.139Z,0.00
2022-11-24T02:56:25.953Z,0.00
2022-11-24T02:57:21.177Z,0.00
2022-11-24T02:58:16.995Z,0.00
2022-11-24T02:59:12.513Z,0.00
2022-11-24T03:00:07.605Z,0.00
2022-11-24T03:01:03.407Z,0.00
2022-11-24T03:01:58.601Z,0.00
2022-11-24T03:02:53.638Z,0.00
2022-11-24T03:03:50.171Z,0.00
2022-11-24T03:04:45.365Z,0.00
2022-11-24T03:05:41.124Z,0.00
2022-11-24T03:06:36.298Z,0.00
2022-11-24T03:07:31.482Z,0.00
2022-11-24T03:08:27.255Z,0.00
2022-11-24T03:09:22.553Z,0.00
2022-11-24T03:10:18.195Z,0.00
2022-11-24T03:11:13.405Z,0.00
2022-11-24T03:12:08.647Z,0.00
2022-11-24T03:13:04.428Z,0.00
2022-11-24T03:13:59.555Z,0.00
2022-11-24T03:14:54.816Z,0.00
2022-11-24T03:15:51.056Z,0.00
2022-11-24T03:16:46.146Z,0.00
2022-11-24T03:17:41.927Z,0.00
2022-11-24T03:18:37.097Z,0.00
2022-11-24T03:19:32.192Z,0.00
2022-11-24T03:20:28.015Z,0.00
2022-11-24T03:21:23.231Z,0.00
2022-11-24T03:22:19.188Z,0.00
2022-11-24T03:23:14.168Z,0.00
2022-11-24T03:24:09.277Z,0.00
2022-11-24T03:25:05.202Z,0.00
2022-11-24T03:26:00.434Z,0.00
2022-11-24T03:26:55.683Z,0.00
2022-11-24T03:27:50.778Z,0.00
2022-11-24T03:28:45.828Z,0.00
2022-11-24T03:29:40.942Z,0.00
2022-11-24T03:30:36.060Z,0.00
2022-11-24T03:31:31.165Z,0.00
2022-11-24T03:32:30.207Z,0.00
2022-11-24T03:33:25.278Z,0.00
2022-11-24T03:34:20.642Z,0.00
2022-11-24T03:35:16.340Z,0.00
2022-11-24T03:36:11.420Z,0.00
2022-11-24T03:37:06.532Z,0.00
2022-11-24T03:38:02.834Z,0.00
2022-11-24T03:38:58.098Z,0.00
2022-11-24T03:39:53.869Z,0.00
2022-11-24T03:40:49.056Z,0.00
2022-11-24T03:41:44.187Z,0.00
2022-11-24T03:42:39.402Z,0.00
2022-11-24T03:43:39.109Z,0.00
2022-11-24T03:44:30.680Z,0.00
2022-11-24T03:46:20.821Z,0.00
2022-11-24T03:47:15.055Z,0.00
2022-11-24T03:48:10.127Z,0.00
2022-11-24T03:49:06.585Z,0.00
2022-11-24T03:50:01.682Z,0.00
2022-11-24T03:50:56.810Z,0.00
2022-11-24T03:51:54.181Z,0.00
2022-11-24T03:52:49.429Z,0.00
2022-11-24T03:53:44.531Z,0.00
2022-11-24T03:54:39.641Z,0.00
2022-11-24T03:55:34.803Z,0.00
2022-11-24T03:56:30.296Z,0.00
2022-11-24T03:57:25.817Z,0.00
2022-11-24T03:58:20.877Z,0.00
2022-11-24T03:59:16.039Z,0.00
2022-11-24T04:00:11.123Z,0.00
2022-11-24T04:01:06.346Z,0.00
2022-11-24T04:02:01.716Z,0.00
2022-11-24T04:02:57.793Z,0.00
2022-11-24T04:03:52.899Z,0.00
2022-11-24T04:04:49.822Z,0.00
2022-11-24T04:05:43.196Z,0.00
2022-11-24T04:06:38.455Z,0.00
2022-11-24T04:07:33.679Z,0.00
2022-11-24T04:08:28.768Z,0.00
2022-11-24T04:09:28.287Z,0.00
2022-11-24T04:10:23.392Z,0.00
2022-11-24T04:11:18.445Z,0.00
2022-11-24T04:12:13.653Z,0.00
2022-11-24T04:13:09.089Z,0.00
2022-11-24T04:14:06.731Z,0.00
2022-11-24T04:15:00.243Z,0.00
2022-11-24T04:15:54.509Z,0.00
2022-11-24T04:16:49.720Z,0.00
2022-11-24T04:17:44.830Z,0.00
2022-11-24T04:18:39.970Z,0.00
2022-11-24T04:19:35.087Z,0.00
2022-11-24T04:20:30.330Z,0.00
2022-11-24T04:21:25.380Z,0.00
2022-11-24T04:22:20.482Z,0.00
2022-11-24T04:23:15.837Z,0.00
2022-11-24T04:24:11.022Z,0.00
2022-11-24T04:25:06.141Z,0.00
2022-11-24T04:26:01.222Z,0.00
2022-11-24T04:26:56.328Z,0.00
2022-11-24T04:27:51.485Z,0.00
2022-11-24T04:28:46.736Z,0.00
2022-11-24T04:29:41.970Z,0.00
2022-11-24T04:30:36.895Z,0.00
2022-11-24T04:31:31.974Z,0.00
2022-11-24T04:32:27.078Z,0.00
2022-11-24T04:33:22.144Z,0.00
2022-11-24T04:34:17.266Z,0.00
2022-11-24T04:35:12.352Z,0.00
2022-11-24T04:36:07.492Z,0.00
2022-11-24T04:37:02.549Z,0.00
2022-11-24T04:37:57.652Z,0.00
2022-11-24T04:39:22.852Z,0.00
2022-11-24T04:39:48.852Z,0.00
2022-11-24T04:40:42.853Z,0.00
2022-11-24T04:41:37.912Z,0.00
2022-11-24T04:42:33.050Z,0.00
2022-11-24T04:43:28.117Z,0.00
2022-11-24T04:44:23.454Z,0.00
2022-11-24T04:45:18.312Z,0.00
2022-11-24T04:46:13.465Z,0.00
2022-11-24T04:47:08.587Z,0.00
2022-11-24T04:48:06.506Z,0.00
2022-11-24T04:49:01.605Z,0.00
2022-11-24T04:49:56.774Z,0.00
2022-11-24T04:50:51.829Z,0.00
2022-11-24T04:51:46.929Z,0.00
2022-11-24T04:52:41.988Z,0.00
2022-11-24T04:53:37.093Z,0.00
2022-11-24T04:54:32.429Z,0.00
2022-11-24T04:55:27.113Z,0.00
2022-11-24T04:56:22.302Z,0.00
2022-11-24T04:57:17.280Z,0.00
2022-11-24T04:58:12.374Z,0.00
2022-11-24T04:59:08.589Z,0.00
2022-11-24T05:00:02.535Z,0.00
2022-11-24T05:00:57.674Z,0.00
2022-11-24T05:01:53.459Z,0.00
2022-11-24T05:02:48.703Z,0.00
2022-11-24T05:03:44.601Z,0.00
2022-11-24T05:04:39.629Z,0.00
2022-11-24T05:05:34.867Z,0.00
2022-11-24T05:06:30.497Z,0.00
2022-11-24T05:07:25.760Z,0.00
2022-11-24T05:08:20.810Z,0.00
2022-11-24T05:09:17.197Z,0.00
2022-11-24T05:10:12.469Z,0.00
2022-11-24T05:11:08.110Z,0.00
2022-11-24T05:12:03.300Z,0.00
2022-11-24T05:12:58.468Z,0.00
2022-11-24T05:13:54.290Z,0.00
2022-11-24T05:14:49.596Z,0.00
2022-11-24T05:15:45.554Z,0.00
2022-11-24T05:16:40.677Z,0.00
2022-11-24T05:17:35.822Z,0.00
2022-11-24T05:18:31.672Z,0.00
2022-11-24T05:19:32.242Z,0.00
2022-11-24T05:20:23.127Z,0.00
2022-11-24T05:21:17.165Z,0.00
2022-11-24T05:22:12.949Z,0.00
2022-11-24T05:23:08.070Z,0.00
2022-11-24T05:24:03.300Z,0.00
2022-11-24T05:24:59.560Z,0.00
2022-11-24T05:25:54.867Z,0.00
2022-11-24T05:26:50.569Z,0.00
2022-11-24T05:27:45.632Z,0.00
2022-11-24T05:28:40.897Z,0.00
2022-11-24T05:29:36.720Z,0.00
2022-11-24T05:30:31.835Z,0.00
2022-11-24T05:31:27.693Z,0.00
2022-11-24T05:32:22.681Z,0.00
2022-11-24T05:33:17.988Z,0.00
2022-11-24T05:34:13.818Z,0.00
2022-11-24T05:35:09.079Z,0.00
2022-11-24T05:36:04.266Z,0.00
2022-11-24T05:37:00.653Z,0.00
2022-11-24T05:37:55.781Z,0.00
2022-11-24T05:38:51.687Z,0.00
2022-11-24T05:39:46.837Z,0.00
2022-11-24T05:40:42.407Z,0.00
2022-11-24T05:41:37.976Z,0.00
2022-11-24T05:42:33.268Z,0.00
2022-11-24T05:43:29.215Z,0.00
2022-11-24T05:44:24.363Z,0.00
2022-11-24T05:45:19.769Z,0.00
2022-11-24T05:46:15.484Z,0.00
2022-11-24T05:47:10.538Z,0.00
2022-11-24T05:48:05.839Z,0.00
2022-11-24T05:49:00.995Z,0.00
2022-11-24T05:49:56.427Z,0.00
2022-11-24T05:50:51.431Z,0.00
2022-11-24T05:51:46.727Z,0.00
2022-11-24T05:52:43.536Z,0.00
2022-11-24T05:53:38.640Z,0.00
2022-11-24T05:54:34.071Z,0.00
2022-11-24T05:55:29.672Z,0.00
2022-11-24T05:56:24.796Z,0.00
2022-11-24T05:57:19.909Z,0.00
2022-11-24T05:58:15.180Z,0.00
2022-11-24T05:59:10.349Z,0.00
2022-11-24T06:00:05.448Z,0.00
2022-11-24T06:01:01.293Z,0.00
2022-11-24T06:01:56.589Z,0.00
2022-11-24T06:02:51.942Z,0.00
2022-11-24T06:03:47.262Z,0.00
2022-11-24T06:04:41.974Z,0.00
2022-11-24T06:05:37.083Z,0.00
2022-11-24T06:06:32.137Z,0.00
2022-11-24T06:07:27.241Z,0.00
2022-11-24T06:08:25.558Z,0.00
2022-11-24T06:09:18.285Z,0.00
2022-11-24T06:10:12.325Z,0.00
2022-11-24T06:11:07.461Z,0.00
2022-11-24T06:12:02.513Z,0.00
2022-11-24T06:13:00.249Z,0.00
2022-11-24T06:13:55.275Z,0.00
2022-11-24T06:14:50.452Z,0.00
2022-11-24T06:15:45.615Z,0.00
2022-11-24T06:16:40.825Z,0.00
2022-11-24T06:17:35.803Z,0.00
2022-11-24T06:18:30.800Z,0.00
2022-11-24T06:19:25.791Z,0.00
2022-11-24T06:20:21.008Z,0.00
2022-11-24T06:21:16.186Z,0.00
2022-11-24T06:22:11.299Z,0.00
2022-11-24T06:23:06.312Z,0.00
2022-11-24T06:24:01.365Z,0.00
2022-11-24T06:24:56.343Z,0.00
2022-11-24T06:25:51.792Z,0.00
2022-11-24T06:26:47.375Z,0.00
2022-11-24T06:27:42.812Z,0.00
2022-11-24T06:28:38.584Z,0.00
2022-11-24T06:29:33.613Z,0.00
2022-11-24T06:30:28.954Z,0.00
2022-11-24T06:31:24.648Z,0.00
2022-11-24T06:32:19.850Z,0.00
2022-11-24T06:33:15.167Z,0.00
2022-11-24T06:34:11.548Z,0.00
2022-11-24T06:35:06.802Z,0.00
2022-11-24T06:36:02.597Z,5.00
2022-11-24T06:36:58.059Z,5.00
2022-11-24T06:37:53.352Z,5.00
2022-11-24T06:38:49.078Z,5.00
2022-11-24T06:39:44.358Z,5.00
2022-11-24T06:40:40.318Z,11.00
2022-11-24T06:41:35.592Z,11.00
2022-11-24T06:42:31.060Z,11.00
2022-11-24T06:43:26.867Z,11.00
2022-11-24T06:44:22.149Z,11.00
2022-11-24T06:45:17.552Z,16.00
2022-11-24T06:46:14.007Z,22.00
2022-11-24T06:47:09.197Z,22.00
2022-11-24T06:48:05.035Z,28.00
2022-11-24T06:49:00.296Z,28.00
2022-11-24T06:49:55.903Z,28.00
2022-11-24T06:50:51.545Z,28.00
2022-11-24T06:51:46.939Z,28.00
2022-11-24T06:52:42.645Z,28.00
2022-11-24T06:53:38.138Z,28.00
2022-11-24T06:54:33.649Z,33.00
2022-11-24T06:55:29.289Z,33.00
2022-11-24T06:56:24.740Z,39.00
2022-11-24T06:57:19.920Z,39.00
2022-11-24T06:58:16.442Z,39.00
2022-11-24T06:59:11.826Z,45.00
2022-11-24T07:00:07.513Z,50.00
2022-11-24T07:01:02.924Z,50.00
2022-11-24T07:01:58.048Z,50.00
2022-11-24T07:02:54.029Z,50.00
2022-11-24T07:03:49.316Z,45.00
2022-11-24T07:04:45.177Z,45.00
2022-11-24T07:05:40.482Z,45.00
2022-11-24T07:06:35.834Z,45.00
2022-11-24T07:07:31.179Z,56.00
2022-11-24T07:08:26.149Z,67.00
2022-11-24T07:09:21.205Z,73.00
2022-11-24T07:10:21.843Z,84.00
2022-11-24T07:11:17.344Z,90.00
2022-11-24T07:12:12.589Z,90.00
2022-11-24T07:13:08.317Z,95.00
2022-11-24T07:14:03.651Z,95.00
2022-11-24T07:14:59.045Z,95.00
2022-11-24T07:15:55.387Z,95.00
2022-11-24T07:16:50.759Z,95.00
2022-11-24T07:17:46.372Z,101.00
2022-11-24T07:18:41.957Z,101.00
2022-11-24T07:19:37.357Z,101.00
2022-11-24T07:20:33.033Z,101.00
2022-11-24T07:21:28.431Z,95.00
2022-11-24T07:22:24.321Z,95.00
2022-11-24T07:23:19.542Z,95.00
2022-11-24T07:24:14.896Z,106.00
2022-11-24T07:25:10.437Z,106.00
2022-11-24T07:26:07.133Z,112.00
2022-11-24T07:27:01.971Z,123.00
2022-11-24T07:27:57.249Z,123.00
2022-11-24T07:28:52.650Z,135.00
2022-11-24T07:29:48.370Z,135.00
2022-11-24T07:30:43.836Z,140.00
2022-11-24T07:31:39.275Z,95.00
2022-11-24T07:32:34.705Z,90.00
2022-11-24T07:33:29.744Z,90.00
2022-11-24T07:34:24.797Z,90.00
2022-11-24T07:35:19.856Z,90.00
2022-11-24T07:36:15.014Z,90.00
2022-11-24T07:37:10.061Z,90.00
2022-11-24T07:38:05.115Z,95.00
2022-11-24T07:39:00.173Z,95.00
2022-11-24T07:39:55.252Z,95.00
2022-11-24T07:40:52.036Z,95.00
2022-11-24T07:41:47.538Z,101.00
2022-11-24T07:42:42.845Z,101.00
2022-11-24T07:43:38.196Z,95.00
2022-11-24T07:44:33.451Z,101.00
2022-11-24T07:45:28.446Z,101.00
2022-11-24T07:46:23.492Z,101.00
2022-11-24T07:47:18.466Z,106.00
2022-11-24T07:48:13.443Z,106.00
2022-11-24T07:49:08.484Z,106.00
2022-11-24T07:50:03.546Z,106.00
2022-11-24T07:50:58.700Z,106.00
2022-11-24T07:51:53.699Z,106.00
2022-11-24T07:52:48.730Z,101.00
2022-11-24T07:53:43.828Z,101.00
2022-11-24T07:54:38.866Z,101.00
2022-11-24T07:55:33.865Z,101.00
2022-11-24T07:56:28.965Z,101.00
2022-11-24T07:57:24.235Z,106.00
2022-11-24T07:58:19.238Z,106.00
2022-11-24T07:59:14.208Z,118.00
2022-11-24T08:00:09.280Z,123.00
2022-11-24T08:01:04.663Z,135.00
2022-11-24T08:01:59.917Z,140.00
2022-11-24T08:02:55.291Z,140.00
2022-11-24T08:03:50.902Z,140.00
2022-11-24T08:04:48.517Z,140.00
2022-11-24T08:06:07.724Z,135.00
2022-11-24T08:06:44.628Z,123.00
2022-11-24T08:07:35.999Z,112.00
2022-11-24T08:08:30.310Z,101.00
2022-11-24T08:09:25.641Z,90.00
2022-11-24T08:10:20.952Z,84.00
2022-11-24T08:11:16.357Z,95.00
2022-11-24T08:12:11.790Z,106.00
2022-11-24T08:13:07.375Z,112.00
2022-11-24T08:14:02.594Z,112.00
2022-11-24T08:14:58.145Z,129.00
2022-11-24T08:15:53.400Z,140.00
2022-11-24T08:16:48.876Z,157.00
2022-11-24T08:17:44.319Z,180.00
2022-11-24T08:18:39.355Z,191.00
2022-11-24T08:19:34.354Z,196.00
2022-11-24T08:20:29.510Z,208.00
2022-11-24T08:21:24.523Z,208.00
2022-11-24T08:22:19.684Z,196.00
2022-11-24T08:23:14.743Z,191.00
2022-11-24T08:24:09.838Z,196.00
2022-11-24T08:25:04.843Z,202.00
2022-11-24T08:26:02.190Z,196.00
2022-11-24T08:26:57.173Z,185.00
2022-11-24T08:27:52.242Z,163.00
2022-11-24T08:28:47.315Z,151.00
2022-11-24T08:29:42.331Z,157.00
2022-11-24T08:30:37.332Z,163.00
2022-11-24T08:31:32.853Z,151.00
2022-11-24T08:32:27.685Z,135.00
2022-11-24T08:33:22.697Z,123.00
2022-11-24T08:34:17.769Z,112.00
2022-11-24T08:35:14.627Z,106.00
2022-11-24T08:36:08.399Z,101.00
2022-11-24T08:37:04.351Z,101.00
2022-11-24T08:38:04.511Z,101.00
2022-11-24T08:38:56.612Z,101.00
2022-11-24T08:39:50.949Z,101.00
2022-11-24T08:40:46.805Z,106.00
2022-11-24T08:41:42.353Z,101.00
2022-11-24T08:42:37.761Z,101.00
2022-11-24T08:43:33.465Z,106.00
2022-11-24T08:44:28.782Z,112.00
2022-11-24T08:45:25.681Z,123.00
2022-11-24T08:46:19.976Z,140.00
2022-11-24T08:47:15.484Z,151.00
2022-11-24T08:48:12.021Z,174.00
2022-11-24T08:49:07.410Z,185.00
2022-11-24T08:50:02.847Z,208.00
2022-11-24T08:50:59.076Z,225.00
2022-11-24T08:51:54.501Z,236.00
2022-11-24T08:52:50.285Z,253.00
2022-11-24T08:53:45.885Z,275.00
2022-11-24T08:54:41.065Z,286.00
2022-11-24T08:55:36.950Z,309.00
2022-11-24T08:56:32.516Z,298.00
2022-11-24T08:57:28.506Z,286.00
2022-11-24T08:58:23.527Z,264.00
2022-11-24T08:59:19.138Z,258.00
2022-11-24T09:00:15.007Z,281.00
2022-11-24T09:01:10.387Z,303.00
2022-11-24T09:02:05.874Z,320.00
2022-11-24T09:03:02.588Z,298.00
2022-11-24T09:03:57.476Z,286.00
2022-11-24T09:04:53.494Z,303.00
2022-11-24T09:05:52.917Z,309.00
2022-11-24T09:06:44.633Z,303.00
2022-11-24T09:07:39.929Z,286.00
2022-11-24T09:08:34.801Z,275.00
2022-11-24T09:09:35.604Z,258.00
2022-11-24T09:10:31.201Z,241.00
2022-11-24T09:11:26.183Z,225.00
2022-11-24T09:12:22.155Z,202.00
2022-11-24T09:13:17.591Z,185.00
2022-11-24T09:14:13.026Z,185.00
2022-11-24T09:15:09.406Z,196.00
2022-11-24T09:16:04.822Z,208.00
2022-11-24T09:17:00.799Z,219.00
2022-11-24T09:17:56.179Z,230.00
2022-11-24T09:18:51.443Z,230.00
2022-11-24T09:19:47.314Z,241.00
2022-11-24T09:20:42.705Z,247.00
2022-11-24T09:21:38.671Z,247.00
2022-11-24T09:22:34.088Z,253.00
2022-11-24T09:23:29.498Z,258.00
2022-11-24T09:24:24.896Z,258.00
2022-11-24T09:25:20.314Z,258.00
2022-11-24T09:26:16.123Z,270.00
2022-11-24T09:27:11.363Z,270.00
2022-11-24T09:28:07.199Z,253.00
2022-11-24T09:29:02.647Z,236.00
2022-11-24T09:29:57.885Z,225.00
2022-11-24T09:30:53.864Z,202.00
2022-11-24T09:31:49.144Z,185.00
2022-11-24T09:32:44.820Z,180.00
2022-11-24T09:33:40.806Z,185.00
2022-11-24T09:34:36.236Z,196.00
2022-11-24T09:35:32.043Z,202.00
2022-11-24T09:36:27.488Z,196.00
2022-11-24T09:37:24.285Z,191.00
2022-11-24T09:38:18.707Z,174.00
2022-11-24T09:39:14.239Z,168.00
2022-11-24T09:40:09.485Z,163.00
2022-11-24T09:41:04.904Z,168.00
2022-11-24T09:42:00.427Z,157.00
2022-11-24T09:42:55.380Z,135.00
2022-11-24T09:43:50.490Z,163.00
2022-11-24T09:44:45.483Z,196.00
2022-11-24T09:46:04.627Z,219.00
2022-11-24T09:46:36.580Z,219.00
2022-11-24T09:47:30.624Z,213.00
2022-11-24T09:48:27.068Z,219.00
2022-11-24T09:49:22.523Z,225.00
2022-11-24T09:50:17.907Z,225.00
2022-11-24T09:51:13.318Z,230.00
2022-11-24T09:52:08.542Z,247.00
2022-11-24T09:53:03.378Z,275.00
2022-11-24T09:53:58.515Z,292.00
2022-11-24T09:54:53.505Z,303.00
2022-11-24T09:55:48.544Z,303.00
2022-11-24T09:56:43.542Z,309.00
2022-11-24T09:57:38.696Z,315.00
2022-11-24T09:58:33.673Z,315.00
2022-11-24T09:59:28.822Z,315.00
2022-11-24T10:00:23.814Z,360.00
2022-11-24T10:01:18.910Z,466.00
2022-11-24T10:02:13.920Z,483.00
2022-11-24T10:03:08.961Z,489.00
2022-11-24T10:04:06.383Z,483.00
2022-11-24T10:04:59.666Z,624.00
2022-11-24T10:05:54.636Z,691.00
2022-11-24T10:06:49.772Z,607.00
2022-11-24T10:07:45.116Z,410.00
2022-11-24T10:08:39.944Z,275.00
2022-11-24T10:09:35.148Z,264.00
2022-11-24T10:10:30.154Z,253.00
2022-11-24T10:11:25.101Z,270.00
2022-11-24T10:12:21.365Z,337.00
2022-11-24T10:13:16.684Z,286.00
2022-11-24T10:14:12.267Z,326.00
2022-11-24T10:15:07.577Z,410.00
2022-11-24T10:16:03.112Z,444.00
2022-11-24T10:16:58.450Z,556.00
2022-11-24T10:17:53.899Z,630.00
2022-11-24T10:18:49.522Z,652.00
2022-11-24T10:19:45.380Z,658.00
2022-11-24T10:20:40.897Z,590.00
2022-11-24T10:21:36.002Z,534.00
2022-11-24T10:22:31.086Z,528.00
2022-11-24T10:23:26.173Z,540.00
2022-11-24T10:24:21.418Z,618.00
2022-11-24T10:25:16.415Z,675.00
2022-11-24T10:26:11.528Z,770.00
2022-11-24T10:27:06.556Z,618.00
2022-11-24T10:28:03.640Z,500.00
2022-11-24T10:28:58.844Z,483.00
2022-11-24T10:29:53.871Z,596.00
2022-11-24T10:30:48.887Z,691.00
2022-11-24T10:31:43.922Z,489.00
2022-11-24T10:32:38.994Z,466.00
2022-11-24T10:33:34.022Z,461.00
2022-11-24T10:34:29.102Z,416.00
2022-11-24T10:35:25.032Z,360.00
2022-11-24T10:36:20.540Z,360.00
2022-11-24T10:37:15.923Z,382.00
2022-11-24T10:38:11.180Z,421.00
2022-11-24T10:39:06.541Z,461.00
2022-11-24T10:40:01.987Z,461.00
2022-11-24T10:40:58.205Z,472.00
2022-11-24T10:41:52.784Z,444.00
2022-11-24T10:42:48.157Z,399.00
2022-11-24T10:43:43.572Z,376.00
2022-11-24T10:44:38.965Z,371.00
2022-11-24T10:45:34.415Z,376.00
2022-11-24T10:46:32.553Z,393.00
2022-11-24T10:47:27.568Z,416.00
2022-11-24T10:48:21.907Z,421.00
2022-11-24T10:49:17.343Z,416.00
2022-11-24T10:50:12.556Z,410.00
2022-11-24T10:51:08.536Z,450.00
2022-11-24T10:52:03.954Z,489.00
2022-11-24T10:53:00.694Z,472.00
2022-11-24T10:53:56.209Z,410.00
2022-11-24T10:54:51.658Z,371.00
2022-11-24T10:55:47.016Z,365.00
2022-11-24T10:56:42.431Z,365.00
2022-11-24T10:57:37.510Z,393.00
2022-11-24T10:58:37.273Z,551.00
2022-11-24T10:59:28.675Z,675.00
2022-11-24T11:00:24.301Z,646.00
2022-11-24T11:01:19.489Z,573.00
2022-11-24T11:02:14.594Z,511.00
2022-11-24T11:03:09.566Z,478.00
2022-11-24T11:04:04.625Z,444.00
2022-11-24T11:04:59.596Z,421.00
2022-11-24T11:05:54.756Z,399.00
2022-11-24T11:06:50.129Z,376.00
2022-11-24T11:07:45.590Z,376.00
2022-11-24T11:08:40.871Z,393.00
2022-11-24T11:09:36.560Z,433.00
2022-11-24T11:10:31.610Z,472.00
2022-11-24T11:11:27.038Z,523.00
2022-11-24T11:13:19.245Z,686.00
2022-11-24T11:14:14.130Z,821.00
2022-11-24T11:15:09.456Z,601.00
2022-11-24T11:16:05.178Z,624.00
2022-11-24T11:17:00.173Z,511.00
2022-11-24T11:17:55.240Z,450.00
2022-11-24T11:18:50.335Z,433.00
2022-11-24T11:19:53.180Z,433.00
2022-11-24T11:20:41.469Z,427.00
2022-11-24T11:21:35.475Z,433.00
2022-11-24T11:22:30.610Z,421.00
2022-11-24T11:23:27.876Z,444.00
2022-11-24T11:24:23.187Z,466.00
2022-11-24T11:25:18.110Z,517.00
2022-11-24T11:26:13.157Z,545.00
2022-11-24T11:27:08.169Z,562.00
2022-11-24T11:28:08.627Z,573.00
2022-11-24T11:31:15.364Z,573.00
2022-11-24T11:34:02.669Z,517.00
2022-11-24T11:34:06.280Z,511.00
2022-11-24T11:34:30.532Z,506.00
2022-11-24T11:35:23.788Z,500.00
2022-11-24T11:36:18.798Z,540.00
2022-11-24T11:37:14.137Z,562.00
2022-11-24T11:38:09.741Z,624.00
2022-11-24T11:39:05.000Z,590.00
2022-11-24T11:40:00.672Z,568.00
2022-11-24T11:40:55.965Z,517.00
2022-11-24T11:41:51.222Z,545.00
2022-11-24T11:43:01.806Z,523.00
2022-11-24T11:43:42.764Z,506.00
2022-11-24T11:44:37.058Z,483.00
2022-11-24T11:45:32.107Z,506.00
2022-11-24T11:46:28.487Z,523.00
2022-11-24T11:47:23.435Z,630.00
2022-11-24T11:48:18.451Z,658.00
2022-11-24T11:49:13.577Z,658.00
2022-11-24T11:50:08.645Z,703.00
2022-11-24T11:51:59.714Z,691.00
2022-11-24T11:52:53.691Z,641.00
2022-11-24T11:53:48.768Z,590.00
2022-11-24T11:54:43.803Z,607.00
2022-11-24T11:55:38.934Z,568.00
2022-11-24T11:56:34.937Z,540.00
2022-11-24T11:57:30.528Z,444.00
2022-11-24T11:58:25.940Z,388.00
2022-11-24T11:59:21.157Z,376.00
2022-11-24T12:00:16.681Z,376.00
2022-11-24T12:01:12.048Z,455.00
2022-11-24T12:02:07.301Z,466.00
2022-11-24T12:03:02.843Z,461.00